createdAt,value
2019-03-20T00:02:02.232Z,6.80
2019-03-20T00:04:32.523Z,6.25
2019-03-20T00:07:02.994Z,5.92
2019-03-20T00:09:33.153Z,6.50
2019-03-20T00:12:03.350Z,6.20
2019-03-20T00:14:33.605Z,6.75
2019-03-20T00:17:04.112Z,5.60
2019-03-20T00:19:34.700Z,6.00
2019-03-20T00:22:05.125Z,6.28
2019-03-20T00:24:35.274Z,6.05
2019-03-20T00:27:05.979Z,6.60
2019-03-20T00:29:36.145Z,6.00
2019-03-20T00:32:06.269Z,6.03
2019-03-20T00:34:36.666Z,6.67
2019-03-20T00:37:07.133Z,6.12
2019-03-20T00:39:37.249Z,6.03
2019-03-20T00:42:07.356Z,6.30
2019-03-20T00:44:37.463Z,6.25
2019-03-20T00:47:07.683Z,6.10
2019-03-20T00:49:39.108Z,6.60
2019-03-20T00:52:09.598Z,6.42
2019-03-20T00:54:39.722Z,6.03
2019-03-20T00:57:09.851Z,5.92
2019-03-20T00:59:40.308Z,6.22
2019-03-20T01:02:11.099Z,5.83
2019-03-20T01:04:41.179Z,6.43
2019-03-20T01:07:11.322Z,6.22
2019-03-20T01:09:41.703Z,6.42
2019-03-20T01:12:12.703Z,6.53
2019-03-20T01:14:43.451Z,6.35
2019-03-20T01:17:13.813Z,5.75
2019-03-20T01:19:45.205Z,6.97
2019-03-20T01:22:15.283Z,5.87
2019-03-20T01:24:45.706Z,6.28
2019-03-20T01:27:15.829Z,5.85
2019-03-20T01:29:45.945Z,6.35
2019-03-20T01:32:16.093Z,6.40
2019-03-20T01:34:46.312Z,6.22
2019-03-20T01:37:16.885Z,6.20
2019-03-20T01:39:46.967Z,6.33
2019-03-20T01:42:17.168Z,6.42
2019-03-20T01:44:48.218Z,5.70
2019-03-20T01:47:18.562Z,6.15
2019-03-20T01:49:49.052Z,6.08
2019-03-20T01:52:19.885Z,6.55
2019-03-20T01:54:50.203Z,5.83
2019-03-20T01:57:21.217Z,6.12
2019-03-20T01:59:51.563Z,5.97
2019-03-20T02:02:22.038Z,6.20
2019-03-20T02:04:52.982Z,6.55
2019-03-20T02:07:23.326Z,5.97
2019-03-20T02:09:53.468Z,6.42
2019-03-20T02:12:23.559Z,5.95
2019-03-20T02:14:53.605Z,6.05
2019-03-20T02:17:23.714Z,6.42
2019-03-20T02:19:55.505Z,5.58
2019-03-20T02:22:25.694Z,6.30
2019-03-20T02:24:55.820Z,6.10
2019-03-20T02:27:26.412Z,6.10
2019-03-20T02:29:56.789Z,6.35
2019-03-20T02:32:27.113Z,5.92
2019-03-20T02:34:57.594Z,5.35
2019-03-20T02:37:28.295Z,6.40
2019-03-20T02:39:58.749Z,6.33
2019-03-20T02:42:28.899Z,5.60
2019-03-20T02:44:59.003Z,6.03
2019-03-20T02:47:30.076Z,6.33
2019-03-20T02:50:00.538Z,6.20
2019-03-20T02:52:30.974Z,6.37
2019-03-20T02:55:01.405Z,5.90
2019-03-20T02:57:31.610Z,6.45
2019-03-20T03:00:01.709Z,6.47
2019-03-20T03:02:32.126Z,6.05
2019-03-20T03:05:02.140Z,5.97
2019-03-20T03:07:32.739Z,6.20
2019-03-20T03:10:02.854Z,5.15
2019-03-20T03:12:33.703Z,5.97
2019-03-20T03:17:34.270Z,5.60
2019-03-20T03:20:04.761Z,5.90
2019-03-20T03:22:35.147Z,5.60
2019-03-20T03:25:05.595Z,5.85
2019-03-20T03:27:35.604Z,5.65
2019-03-20T03:30:05.823Z,5.87
2019-03-20T03:32:35.908Z,5.70
2019-03-20T03:35:07.085Z,5.83
2019-03-20T03:37:37.161Z,5.42
2019-03-20T03:40:07.957Z,5.70
2019-03-20T03:42:38.470Z,8.95
2019-03-20T03:45:09.918Z,6.22
2019-03-20T03:47:40.066Z,6.25
2019-03-20T03:50:10.241Z,5.90
2019-03-20T03:52:40.292Z,6.83
2019-03-20T03:55:10.414Z,6.33
2019-03-20T03:57:40.996Z,5.70
2019-03-20T04:00:12.852Z,5.75
2019-03-20T04:02:43.095Z,5.00
2019-03-20T04:05:13.593Z,6.10
2019-03-20T04:07:44.196Z,5.37
2019-03-20T04:10:15.253Z,5.45
2019-03-20T04:12:45.347Z,5.22
2019-03-20T04:15:15.485Z,5.85
2019-03-20T04:17:45.995Z,5.60
2019-03-20T04:20:16.458Z,5.78
2019-03-20T04:22:46.599Z,6.60
2019-03-20T04:25:17.116Z,6.22
2019-03-20T04:27:47.138Z,6.58
2019-03-20T04:30:17.263Z,5.83
2019-03-20T04:32:47.517Z,5.80
2019-03-20T04:35:17.905Z,5.90
2019-03-20T04:37:48.446Z,5.33
2019-03-20T04:40:19.070Z,5.28
2019-03-20T04:42:49.952Z,6.15
2019-03-20T04:45:20.435Z,6.22
2019-03-20T04:47:51.253Z,6.03
2019-03-20T04:50:21.660Z,5.93
2019-03-20T04:52:51.747Z,6.47
2019-03-20T04:55:22.177Z,6.22
2019-03-20T04:57:52.691Z,5.85
2019-03-20T05:00:23.119Z,5.90
2019-03-20T05:02:53.597Z,6.75
2019-03-20T05:05:24.400Z,6.50
2019-03-20T05:07:54.697Z,6.12
2019-03-20T05:10:25.408Z,6.67
2019-03-20T05:12:55.687Z,6.42
2019-03-20T05:15:25.799Z,5.75
2019-03-20T05:17:56.009Z,6.37
2019-03-20T05:20:26.097Z,6.58
2019-03-20T05:22:56.168Z,5.78
2019-03-20T05:25:26.585Z,6.25
2019-03-20T05:27:56.947Z,7.05
2019-03-20T05:30:27.283Z,6.53
2019-03-20T05:32:57.320Z,6.97
2019-03-20T05:35:27.798Z,7.90
2019-03-20T05:37:58.545Z,7.30
2019-03-20T05:40:28.974Z,7.05
2019-03-20T05:42:59.376Z,6.83
2019-03-20T05:45:29.617Z,7.25
2019-03-20T05:47:59.654Z,7.05
2019-03-20T05:50:30.150Z,6.50
2019-03-20T05:53:00.319Z,6.65
2019-03-20T05:55:31.315Z,6.55
2019-03-20T05:58:01.530Z,6.20
2019-03-20T06:00:33.530Z,6.83
2019-03-20T06:03:03.549Z,6.33
2019-03-20T06:05:33.593Z,6.80
2019-03-20T06:08:03.656Z,6.67
2019-03-20T06:10:34.082Z,6.58
2019-03-20T06:13:04.134Z,6.50
2019-03-20T06:15:34.584Z,7.00
2019-03-20T06:18:04.633Z,6.70
2019-03-20T06:20:35.693Z,6.17
2019-03-20T06:23:06.243Z,7.05
2019-03-20T06:25:36.399Z,7.55
2019-03-20T06:28:06.582Z,7.33
2019-03-20T06:30:36.999Z,7.90
2019-03-20T06:33:07.494Z,7.97
2019-03-20T06:35:39.047Z,7.60
2019-03-20T06:38:09.442Z,7.30
2019-03-20T06:40:39.595Z,8.43
2019-03-20T06:43:09.984Z,6.95
2019-03-20T06:45:40.224Z,7.85
2019-03-20T06:48:10.508Z,7.95
2019-03-20T06:50:40.738Z,7.97
2019-03-20T06:53:11.390Z,7.97
2019-03-20T06:55:41.500Z,8.08
2019-03-20T06:58:11.927Z,7.55
2019-03-20T07:01:01.669Z,7.37
2019-03-20T07:03:48.750Z,7.62
2019-03-20T07:06:32.674Z,8.00
2019-03-20T07:09:26.648Z,8.68
2019-03-20T07:11:57.367Z,7.92
2019-03-20T07:14:27.522Z,7.95
2019-03-20T07:16:57.989Z,7.45
2019-03-20T07:19:28.379Z,7.92
2019-03-20T07:21:58.781Z,7.95
2019-03-20T07:24:28.914Z,8.20
2019-03-20T07:26:59.277Z,8.05
2019-03-20T07:29:29.653Z,8.83
2019-03-20T07:32:00.131Z,7.95
2019-03-20T07:34:31.619Z,7.70
2019-03-20T07:37:02.415Z,7.60
2019-03-20T07:39:32.543Z,7.83
2019-03-20T07:42:02.656Z,8.03
2019-03-20T07:44:32.775Z,7.33
2019-03-20T07:47:03.281Z,7.72
2019-03-20T07:49:34.052Z,7.62
2019-03-20T07:52:04.220Z,7.33
2019-03-20T07:54:34.595Z,8.10
2019-03-20T07:57:04.747Z,7.87
2019-03-20T07:59:35.310Z,7.83
2019-03-20T08:02:06.318Z,8.10
2019-03-20T08:04:38.358Z,7.90
2019-03-20T08:07:08.572Z,7.25
2019-03-20T08:09:38.927Z,7.33
2019-03-20T08:12:10.442Z,6.67
2019-03-20T08:14:41.027Z,7.85
2019-03-20T08:17:11.263Z,5.92
2019-03-20T08:19:41.349Z,6.28
2019-03-20T08:22:11.720Z,6.33
2019-03-20T08:24:42.134Z,6.70
2019-03-20T08:27:12.274Z,5.83
2019-03-20T08:29:42.348Z,5.58
2019-03-20T08:32:12.477Z,5.47
2019-03-20T08:34:42.708Z,5.08
2019-03-20T08:37:13.389Z,5.47
2019-03-20T08:39:43.508Z,5.12
2019-03-20T08:45:01.683Z,4.80
2019-03-20T08:47:32.171Z,5.15
2019-03-20T08:50:02.974Z,4.87
2019-03-20T08:52:33.375Z,4.30
2019-03-20T08:55:05.249Z,4.45
2019-03-20T08:57:35.382Z,4.30
2019-03-20T09:00:07.137Z,4.20
2019-03-20T09:02:37.979Z,4.28
2019-03-20T09:05:08.860Z,4.03
2019-03-20T09:07:47.103Z,3.40
2019-03-20T09:10:16.824Z,3.60
2019-03-20T09:12:47.959Z,3.55
2019-03-20T09:15:18.262Z,3.58
2019-03-20T09:17:48.692Z,3.30
2019-03-20T09:20:18.842Z,3.30
2019-03-20T09:22:48.951Z,3.42
2019-03-20T09:25:19.200Z,3.27
2019-03-20T09:27:49.390Z,3.30
2019-03-20T09:30:20.980Z,3.12
2019-03-20T09:32:51.374Z,3.30
2019-03-20T09:35:21.904Z,2.60
2019-03-20T09:37:52.824Z,2.72
2019-03-20T09:40:23.772Z,3.12
2019-03-20T09:42:54.205Z,2.67
2019-03-20T09:45:24.711Z,2.20
2019-03-20T09:47:55.447Z,2.10
2019-03-20T09:52:56.090Z,2.20
2019-03-20T09:55:26.516Z,2.17
2019-03-20T09:57:56.677Z,2.90
2019-03-20T10:00:27.130Z,2.30
2019-03-20T10:02:57.481Z,2.02
2019-03-20T10:05:27.903Z,2.20
2019-03-20T10:07:59.171Z,2.10
2019-03-20T10:10:29.452Z,2.37
2019-03-20T10:13:01.093Z,2.20
2019-03-20T10:15:31.778Z,2.52
2019-03-20T10:18:02.311Z,2.30
2019-03-20T10:23:20.992Z,2.87
2019-03-20T10:25:51.228Z,2.50
2019-03-20T10:28:22.192Z,2.20
2019-03-20T10:30:52.526Z,2.37
2019-03-20T10:33:23.318Z,2.22
2019-03-20T10:35:54.047Z,2.12
2019-03-20T10:38:24.244Z,2.37
2019-03-20T10:40:54.472Z,2.50
2019-03-20T10:43:24.652Z,2.52
2019-03-20T10:45:54.860Z,2.42
2019-03-20T10:48:25.091Z,2.47
2019-03-20T10:50:56.174Z,2.65
2019-03-20T10:53:26.336Z,2.87
2019-03-20T10:55:56.763Z,2.70
2019-03-20T10:58:26.979Z,2.40
2019-03-20T11:00:57.210Z,2.60
2019-03-20T11:03:27.361Z,2.80
2019-03-20T11:05:58.191Z,2.80
2019-03-20T11:08:28.708Z,2.87
2019-03-20T11:10:58.878Z,2.72
2019-03-20T11:13:29.157Z,2.75
2019-03-20T11:15:59.992Z,2.50
2019-03-20T11:18:30.207Z,2.70
2019-03-20T11:21:01.107Z,2.50
2019-03-20T11:23:31.283Z,2.90
2019-03-20T11:26:02.497Z,2.72
2019-03-20T11:28:32.653Z,2.80
2019-03-20T11:31:03.176Z,2.58
2019-03-20T11:33:33.676Z,2.77
2019-03-20T11:36:05.167Z,2.80
2019-03-20T11:38:35.378Z,2.90
2019-03-20T11:41:05.575Z,2.90
2019-03-20T11:43:36.551Z,2.60
2019-03-20T11:46:06.744Z,2.87
2019-03-20T11:48:37.258Z,3.00
2019-03-20T11:51:07.731Z,2.98
2019-03-20T11:53:37.959Z,2.62
2019-03-20T11:56:08.219Z,2.20
2019-03-20T11:58:39.223Z,2.62
2019-03-20T12:01:09.450Z,2.52
2019-03-20T12:03:40.190Z,2.50
2019-03-20T12:06:10.443Z,2.85
2019-03-20T12:08:40.682Z,3.22
2019-03-20T12:11:11.046Z,2.77
2019-03-20T12:13:41.185Z,2.95
2019-03-20T12:16:11.326Z,2.98
2019-03-20T12:18:42.182Z,2.87
2019-03-20T12:21:13.029Z,3.08
2019-03-20T12:23:43.175Z,3.23
2019-03-20T12:26:13.627Z,2.70
2019-03-20T12:28:44.210Z,2.62
2019-03-20T12:31:14.388Z,2.72
2019-03-20T12:33:44.601Z,2.85
2019-03-20T12:36:16.125Z,2.67
2019-03-20T12:38:46.591Z,2.83
2019-03-20T12:41:17.299Z,2.60
2019-03-20T12:43:47.921Z,2.90
2019-03-20T12:46:18.191Z,2.60
2019-03-20T12:48:48.459Z,3.22
2019-03-20T12:51:18.640Z,3.17
2019-03-20T12:53:48.820Z,3.37
2019-03-20T12:56:19.065Z,2.98
2019-03-20T12:58:49.512Z,3.37
2019-03-20T13:01:19.704Z,4.15
2019-03-20T13:03:50.246Z,3.50
2019-03-20T13:06:20.446Z,3.55
2019-03-20T13:08:50.935Z,3.62
2019-03-20T13:11:21.246Z,3.25
2019-03-20T13:13:51.416Z,3.10
2019-03-20T13:16:22.224Z,3.50
2019-03-20T13:18:52.475Z,3.20
2019-03-20T13:21:23.387Z,3.42
2019-03-20T13:23:54.104Z,3.80
2019-03-20T13:26:24.341Z,4.05
2019-03-20T13:28:54.597Z,3.08
2019-03-20T13:31:25.141Z,3.50
2019-03-20T13:33:55.683Z,3.65
2019-03-20T13:36:26.553Z,3.52
2019-03-20T13:38:56.690Z,3.03
2019-03-20T13:41:26.941Z,3.20
2019-03-20T13:43:57.499Z,2.80
2019-03-20T13:46:27.689Z,3.12
2019-03-20T13:48:58.230Z,3.35
2019-03-20T13:51:28.455Z,3.25
2019-03-20T13:53:58.633Z,3.05
2019-03-20T13:56:29.153Z,3.00
2019-03-20T13:58:59.760Z,3.25
2019-03-20T14:01:30.045Z,2.92
2019-03-20T14:04:01.151Z,3.00
2019-03-20T14:06:31.413Z,2.95
2019-03-20T14:09:01.650Z,3.20
2019-03-20T14:14:03.549Z,3.83
2019-03-20T14:16:34.417Z,3.12
2019-03-20T14:19:04.934Z,3.60
2019-03-20T14:21:35.539Z,3.40
2019-03-20T14:24:06.472Z,3.45
2019-03-20T14:26:36.969Z,2.77
2019-03-20T14:29:07.579Z,3.15
2019-03-20T14:31:38.027Z,3.20
2019-03-20T14:34:08.565Z,3.40
2019-03-20T14:36:39.034Z,3.00
2019-03-20T14:39:10.007Z,3.50
2019-03-20T14:41:40.841Z,3.40
2019-03-20T14:44:12.490Z,2.85
2019-03-20T14:46:42.709Z,3.30
2019-03-20T14:49:13.785Z,3.25
2019-03-20T14:51:43.940Z,3.10
2019-03-20T14:54:14.819Z,3.20
2019-03-20T14:56:45.427Z,3.20
2019-03-20T14:59:15.640Z,3.05
2019-03-20T15:01:45.905Z,3.10
2019-03-20T15:04:16.228Z,3.12
2019-03-20T15:06:48.528Z,3.30
2019-03-20T15:09:19.021Z,3.90
2019-03-20T15:11:49.204Z,3.80
2019-03-20T15:14:20.805Z,2.83
2019-03-20T15:16:51.289Z,3.30
2019-03-20T15:19:22.168Z,3.67
2019-03-20T15:21:52.333Z,3.30
2019-03-20T15:24:23.811Z,3.70
2019-03-20T15:26:53.993Z,3.80
2019-03-20T15:29:24.609Z,3.50
2019-03-20T15:31:54.743Z,3.40
2019-03-20T15:34:25.011Z,3.75
2019-03-20T15:36:55.196Z,3.17
2019-03-20T15:39:25.963Z,3.77
2019-03-20T15:41:56.131Z,3.47
2019-03-20T15:46:57.656Z,3.92
2019-03-20T15:49:28.427Z,3.65
2019-03-20T15:52:01.891Z,3.40
2019-03-20T15:54:32.032Z,3.50
2019-03-20T15:57:02.216Z,3.58
2019-03-20T15:59:32.459Z,4.08
2019-03-20T16:02:02.607Z,3.37
2019-03-20T16:04:32.801Z,3.33
2019-03-20T16:07:03.627Z,3.83
2019-03-20T16:09:33.841Z,3.52
2019-03-20T16:12:04.343Z,3.45
2019-03-20T16:14:34.564Z,3.47
2019-03-20T16:17:05.384Z,3.58
2019-03-20T16:19:35.954Z,3.50
2019-03-20T16:22:07.239Z,3.55
2019-03-20T16:24:37.766Z,3.40
2019-03-20T16:27:08.221Z,3.25
2019-03-20T16:29:38.755Z,3.33
2019-03-20T16:32:08.995Z,3.40
2019-03-20T16:34:39.153Z,3.67
2019-03-20T16:37:09.313Z,3.55
2019-03-20T16:39:40.501Z,3.72
2019-03-20T16:42:10.816Z,4.22
2019-03-20T16:44:41.375Z,3.92
2019-03-20T16:47:11.942Z,3.80
2019-03-20T16:49:42.175Z,3.60
2019-03-20T16:52:12.973Z,4.33
2019-03-20T16:54:43.513Z,4.15
2019-03-20T16:57:13.998Z,3.55
2019-03-20T16:59:44.437Z,4.20
2019-03-20T17:02:14.639Z,4.20
2019-03-20T17:04:46.043Z,3.45
2019-03-20T17:07:16.302Z,3.67
2019-03-20T17:09:46.816Z,4.37
2019-03-20T17:12:17.034Z,4.20
2019-03-20T17:14:48.162Z,4.08
2019-03-20T17:17:18.815Z,4.40
2019-03-20T17:19:49.489Z,4.20
2019-03-20T17:22:19.700Z,4.20
2019-03-20T17:24:51.596Z,4.17
2019-03-20T17:27:22.737Z,4.53
2019-03-20T17:29:53.060Z,4.58
2019-03-20T17:32:23.211Z,5.25
2019-03-20T17:34:53.400Z,5.20
2019-03-20T17:37:25.331Z,5.03
2019-03-20T17:39:56.449Z,5.43
2019-03-20T17:42:26.653Z,4.45
2019-03-20T17:44:56.879Z,4.55
2019-03-20T17:47:27.172Z,4.58
2019-03-20T17:49:57.679Z,4.60
2019-03-20T17:52:28.312Z,4.33
2019-03-20T17:54:58.766Z,4.15
2019-03-20T17:57:28.933Z,4.15
2019-03-20T17:59:59.423Z,3.80
2019-03-20T18:02:30.016Z,4.20
2019-03-20T18:05:02.459Z,4.20
2019-03-20T18:10:01.633Z,4.12
2019-03-20T18:12:32.163Z,3.87
2019-03-20T18:15:02.441Z,4.72
2019-03-20T18:17:33.656Z,4.67
2019-03-20T18:20:03.941Z,3.55
2019-03-20T18:22:34.794Z,4.20
2019-03-20T18:25:05.703Z,4.03
2019-03-20T18:27:35.938Z,4.20
2019-03-20T18:30:10.034Z,4.25
2019-03-20T18:32:40.955Z,4.00
2019-03-20T18:35:11.137Z,4.30
2019-03-20T18:37:41.437Z,4.22
2019-03-20T18:40:13.684Z,4.30
2019-03-20T18:42:44.354Z,4.00
2019-03-20T18:45:16.392Z,4.83
2019-03-20T18:47:46.944Z,4.05
2019-03-20T18:50:17.654Z,4.95
2019-03-20T18:52:49.668Z,4.53
2019-03-20T18:55:20.230Z,4.30
2019-03-20T18:57:50.967Z,4.35
2019-03-20T19:00:23.062Z,4.25
2019-03-20T19:02:53.946Z,5.35
2019-03-20T19:05:59.880Z,5.03
2019-03-20T19:08:30.021Z,5.72
2019-03-20T19:11:00.469Z,5.78
2019-03-20T19:13:31.329Z,4.80
2019-03-20T19:16:01.694Z,4.65
2019-03-20T19:18:32.511Z,4.97
2019-03-20T19:21:03.241Z,5.25
2019-03-20T19:23:33.387Z,5.12
2019-03-20T19:26:03.815Z,5.03
2019-03-20T19:28:34.615Z,8.03
2019-03-20T19:31:05.135Z,5.60
2019-03-20T19:33:35.302Z,5.70
2019-03-20T19:36:05.806Z,5.15
2019-03-20T19:38:36.535Z,5.95
2019-03-20T19:41:08.849Z,6.05
2019-03-20T19:43:39.016Z,6.20
2019-03-20T19:46:09.059Z,6.37
2019-03-20T19:48:39.683Z,6.80
2019-03-20T19:51:09.808Z,6.70
2019-03-20T19:53:40.284Z,7.05
2019-03-20T19:56:10.749Z,7.75
2019-03-20T19:58:41.113Z,7.12
2019-03-20T20:01:11.188Z,7.05
2019-03-20T20:03:41.645Z,7.58
2019-03-20T20:06:11.668Z,7.08
2019-03-20T20:08:42.495Z,7.33
2019-03-20T20:11:12.650Z,7.15
2019-03-20T20:13:42.791Z,7.22
2019-03-20T20:16:13.316Z,8.13
2019-03-20T20:18:43.394Z,8.05
2019-03-20T20:21:14.276Z,8.00
2019-03-20T20:23:44.386Z,7.77
2019-03-20T20:26:14.897Z,9.85
2019-03-20T20:28:45.507Z,8.80
2019-03-20T20:31:16.805Z,7.97
2019-03-20T20:33:47.474Z,8.75
2019-03-20T20:36:17.591Z,8.58
2019-03-20T20:38:47.663Z,8.93
2019-03-20T20:41:18.554Z,8.45
2019-03-20T20:43:48.628Z,9.53
2019-03-20T20:46:19.264Z,8.93
2019-03-20T20:48:49.702Z,8.98
2019-03-20T20:51:20.951Z,8.98
2019-03-20T20:53:51.812Z,9.53
2019-03-20T20:56:22.784Z,9.80
2019-03-20T20:58:53.195Z,9.87
2019-03-20T21:01:23.641Z,10.03
2019-03-20T21:03:53.776Z,9.40
2019-03-20T21:06:24.546Z,9.95
2019-03-20T21:08:55.760Z,10.50
2019-03-20T21:11:26.164Z,9.40
2019-03-20T21:13:56.306Z,9.50
2019-03-20T21:16:26.970Z,9.73
2019-03-20T21:19:34.115Z,9.35
2019-03-20T21:22:42.645Z,9.58
2019-03-20T21:25:24.561Z,9.75
2019-03-20T21:28:56.608Z,10.00
2019-03-20T21:31:49.000Z,9.43
2019-03-20T21:34:58.976Z,9.15
2019-03-20T21:38:05.862Z,9.00
2019-03-20T21:40:52.910Z,9.78
2019-03-20T21:43:58.410Z,9.20
2019-03-20T21:47:00.826Z,8.30
2019-03-20T21:49:33.099Z,8.25
2019-03-20T21:52:04.038Z,8.20
2019-03-20T21:55:21.208Z,8.58
2019-03-20T21:58:21.681Z,8.70
2019-03-20T22:01:28.623Z,8.65
2019-03-20T22:03:59.485Z,9.33
2019-03-20T22:07:06.026Z,9.13
2019-03-20T22:10:23.218Z,7.95
2019-03-20T22:13:25.094Z,8.03
2019-03-20T22:16:51.734Z,8.80
2019-03-20T22:20:24.235Z,8.33
2019-03-20T22:23:23.351Z,8.20
2019-03-20T22:26:18.440Z,8.05
2019-03-20T22:29:23.580Z,8.43
2019-03-20T22:32:36.811Z,8.35
2019-03-20T22:35:43.742Z,8.50
2019-03-20T22:38:34.934Z,8.28
2019-03-20T22:41:46.373Z,8.13
2019-03-20T22:44:18.420Z,8.30
2019-03-20T22:47:34.659Z,8.33
2019-03-20T22:50:54.592Z,8.88
2019-03-20T22:53:52.941Z,8.15
2019-03-20T22:56:56.652Z,9.08
2019-03-20T22:59:27.597Z,8.00
2019-03-20T23:02:08.519Z,9.33
2019-03-20T23:04:42.286Z,8.60
2019-03-20T23:07:12.941Z,8.73
2019-03-20T23:09:44.343Z,9.10
2019-03-20T23:12:17.964Z,8.88
2019-03-20T23:14:49.065Z,9.03
2019-03-20T23:17:20.219Z,8.15
2019-03-20T23:19:52.651Z,7.75
2019-03-20T23:22:23.231Z,8.65
2019-03-20T23:24:53.938Z,8.05
2019-03-20T23:27:29.960Z,8.40
2019-03-20T23:30:01.304Z,8.23
2019-03-20T23:32:32.649Z,8.00
2019-03-20T23:35:05.358Z,7.50
2019-03-20T23:37:36.548Z,8.20
2019-03-20T23:40:09.366Z,7.78
2019-03-20T23:42:40.904Z,8.40
2019-03-20T23:45:13.858Z,7.53
2019-03-20T23:48:01.190Z,7.83
2019-03-20T23:50:32.222Z,9.43
2019-03-20T23:53:03.288Z,8.13
2019-03-20T23:55:34.878Z,7.97
2019-03-20T23:58:05.890Z,8.33
